createdAt,value
2023-08-13T00:00:46.192Z,19.80
2023-08-13T00:03:13.564Z,19.80
2023-08-13T00:05:40.889Z,19.80
2023-08-13T00:08:08.198Z,19.80
2023-08-13T00:10:36.469Z,19.80
2023-08-13T00:13:03.932Z,19.80
2023-08-13T00:15:32.742Z,19.80
2023-08-13T00:18:00.419Z,19.70
2023-08-13T00:20:27.702Z,19.70
2023-08-13T00:22:55.209Z,19.80
2023-08-13T00:25:22.675Z,19.80
2023-08-13T00:27:49.987Z,19.70
2023-08-13T00:30:17.301Z,19.70
2023-08-13T00:32:44.526Z,19.70
2023-08-13T00:35:11.923Z,19.60
2023-08-13T00:37:39.258Z,19.60
2023-08-13T00:40:07.318Z,19.50
2023-08-13T00:42:34.921Z,19.50
2023-08-13T00:45:02.272Z,19.60
2023-08-13T00:47:32.726Z,19.70
2023-08-13T00:50:00.253Z,19.60
2023-08-13T00:52:27.693Z,19.50
2023-08-13T00:57:22.824Z,19.60
2023-08-13T00:59:52.401Z,19.50
2023-08-13T01:02:20.213Z,19.50
2023-08-13T01:04:47.435Z,19.50
2023-08-13T01:07:39.467Z,19.50
2023-08-13T01:10:20.228Z,19.50
2023-08-13T01:13:14.311Z,19.40
2023-08-13T01:15:45.142Z,19.40
2023-08-13T01:18:14.498Z,19.40
2023-08-13T01:20:44.509Z,19.40
2023-08-13T01:23:11.940Z,19.40
2023-08-13T01:25:42.306Z,19.40
2023-08-13T01:28:09.819Z,19.40
2023-08-13T01:30:45.469Z,19.50
2023-08-13T01:33:20.038Z,19.50
2023-08-13T01:35:48.723Z,19.50
2023-08-13T01:38:16.766Z,19.60
2023-08-13T01:40:44.114Z,19.40
2023-08-13T01:43:11.807Z,19.50
2023-08-13T01:45:39.103Z,19.40
2023-08-13T01:48:07.101Z,19.50
2023-08-13T01:50:34.398Z,19.50
2023-08-13T01:53:01.631Z,19.50
2023-08-13T01:55:29.013Z,19.40
2023-08-13T01:57:56.415Z,19.50
2023-08-13T02:00:23.853Z,19.50
2023-08-13T02:02:51.509Z,19.50
2023-08-13T02:05:19.219Z,19.40
2023-08-13T02:07:47.056Z,19.50
2023-08-13T02:10:14.635Z,19.40
2023-08-13T02:12:41.992Z,19.50
2023-08-13T02:17:37.548Z,19.50
2023-08-13T02:20:05.060Z,19.50
2023-08-13T02:22:33.081Z,19.50
2023-08-13T02:25:00.466Z,19.50
2023-08-13T02:27:27.931Z,19.40
2023-08-13T02:29:55.224Z,19.50
2023-08-13T02:32:22.472Z,19.50
2023-08-13T02:34:49.690Z,19.50
2023-08-13T02:37:17.048Z,19.50
2023-08-13T02:39:44.556Z,19.50
2023-08-13T02:42:12.141Z,19.60
2023-08-13T02:44:39.479Z,19.50
2023-08-13T02:47:06.715Z,19.50
2023-08-13T02:49:33.959Z,19.60
2023-08-13T02:52:01.421Z,19.60
2023-08-13T02:54:28.650Z,19.60
2023-08-13T02:59:23.521Z,19.70
2023-08-13T03:01:51.069Z,19.70
2023-08-13T03:04:18.533Z,19.70
2023-08-13T03:06:45.831Z,19.80
2023-08-13T03:09:21.642Z,19.80
2023-08-13T03:11:49.886Z,19.70
2023-08-13T03:14:18.155Z,19.70
2023-08-13T03:16:45.612Z,19.70
2023-08-13T03:19:12.896Z,19.70
2023-08-13T03:21:40.125Z,19.70
2023-08-13T03:24:07.781Z,19.70
2023-08-13T03:26:35.136Z,19.60
2023-08-13T03:29:02.390Z,19.70
2023-08-13T03:31:29.592Z,19.70
2023-08-13T03:33:56.905Z,19.70
2023-08-13T03:36:24.369Z,19.80
2023-08-13T03:38:51.765Z,19.80
2023-08-13T03:41:19.022Z,19.90
2023-08-13T03:43:46.287Z,19.80
2023-08-13T03:46:13.641Z,19.80
2023-08-13T03:48:40.883Z,19.80
2023-08-13T03:51:08.121Z,19.80
2023-08-13T03:53:35.482Z,19.90
2023-08-13T03:56:07.165Z,19.90
2023-08-13T03:58:36.266Z,20.10
2023-08-13T04:01:08.037Z,20.10
2023-08-13T04:03:36.575Z,20.30
2023-08-13T04:06:04.171Z,20.10
2023-08-13T04:08:31.548Z,20.40
2023-08-13T04:10:58.723Z,20.20
2023-08-13T04:13:26.016Z,20.40
2023-08-13T04:15:53.481Z,20.40
2023-08-13T04:18:20.743Z,20.60
2023-08-13T04:20:48.080Z,20.60
2023-08-13T04:23:15.454Z,20.70
2023-08-13T04:25:43.297Z,20.50
2023-08-13T04:28:10.465Z,20.60
2023-08-13T04:30:37.736Z,20.80
2023-08-13T04:33:05.255Z,21.50
2023-08-13T04:35:32.670Z,21.60
2023-08-13T04:38:00.300Z,20.80
2023-08-13T04:40:27.604Z,21.00
2023-08-13T04:42:54.795Z,21.20
2023-08-13T04:45:22.227Z,21.10
2023-08-13T04:47:49.684Z,21.10
2023-08-13T04:50:17.033Z,21.30
2023-08-13T04:52:45.096Z,21.60
2023-08-13T04:55:12.499Z,21.40
2023-08-13T04:57:39.739Z,21.60
2023-08-13T05:00:10.052Z,21.80
2023-08-13T05:02:37.364Z,21.90
2023-08-13T05:05:05.686Z,21.30
2023-08-13T05:07:34.023Z,21.10
2023-08-13T05:10:01.365Z,21.60
2023-08-13T05:12:30.534Z,21.30
2023-08-13T05:14:57.936Z,21.50
2023-08-13T05:17:26.124Z,21.60
2023-08-13T05:19:53.529Z,21.30
2023-08-13T05:22:20.928Z,21.10
2023-08-13T05:24:48.633Z,21.00
2023-08-13T05:27:15.937Z,20.80
2023-08-13T05:29:43.097Z,21.00
2023-08-13T05:32:10.381Z,21.40
2023-08-13T05:34:37.666Z,21.40
2023-08-13T05:37:05.027Z,21.60
2023-08-13T05:39:32.283Z,21.70
2023-08-13T05:41:59.456Z,21.20
2023-08-13T05:44:26.978Z,21.30
2023-08-13T05:46:54.336Z,21.50
2023-08-13T05:49:21.545Z,21.70
2023-08-13T05:51:51.597Z,21.70
2023-08-13T05:54:18.955Z,21.50
2023-08-13T05:56:46.234Z,21.60
2023-08-13T05:59:13.487Z,21.60
2023-08-13T06:01:40.782Z,21.50
2023-08-13T06:04:08.206Z,21.50
2023-08-13T06:06:35.377Z,21.30
2023-08-13T06:09:02.794Z,21.50
2023-08-13T06:11:30.710Z,21.40
2023-08-13T06:13:58.166Z,21.50
2023-08-13T06:16:26.130Z,21.30
2023-08-13T06:18:54.648Z,21.30
2023-08-13T06:21:22.212Z,21.30
2023-08-13T06:23:49.500Z,21.30
2023-08-13T06:26:16.716Z,21.40
2023-08-13T06:28:43.929Z,21.30
2023-08-13T06:31:16.835Z,20.90
2023-08-13T06:33:49.632Z,20.90
2023-08-13T06:36:16.959Z,20.60
2023-08-13T06:38:44.273Z,20.60
2023-08-13T06:41:11.689Z,20.50
2023-08-13T06:43:38.983Z,20.50
2023-08-13T06:46:08.364Z,20.60
2023-08-13T06:48:37.569Z,20.60
2023-08-13T06:51:05.366Z,20.60
2023-08-13T06:53:32.875Z,20.60
2023-08-13T06:56:02.602Z,20.50
2023-08-13T06:58:29.931Z,20.60
2023-08-13T07:00:57.187Z,20.70
2023-08-13T07:03:24.584Z,20.90
2023-08-13T07:05:53.020Z,20.80
2023-08-13T07:08:20.520Z,21.00
2023-08-13T07:10:50.435Z,21.60
2023-08-13T07:13:17.953Z,21.30
2023-08-13T07:15:45.130Z,21.60
2023-08-13T07:18:12.344Z,21.40
2023-08-13T07:20:40.066Z,21.20
2023-08-13T07:23:07.969Z,20.90
2023-08-13T07:25:36.034Z,20.70
2023-08-13T07:28:03.357Z,21.10
2023-08-13T07:30:30.667Z,20.70
2023-08-13T07:32:57.979Z,20.60
2023-08-13T07:35:26.047Z,20.50
2023-08-13T07:37:53.793Z,20.40
2023-08-13T07:40:21.129Z,20.60
2023-08-13T07:42:48.412Z,20.50
2023-08-13T07:45:16.020Z,20.50
2023-08-13T07:47:44.000Z,20.40
2023-08-13T07:50:11.956Z,20.40
2023-08-13T07:55:07.230Z,20.50
2023-08-13T07:57:35.142Z,20.60
2023-08-13T08:00:02.766Z,20.40
2023-08-13T08:02:31.965Z,20.30
2023-08-13T08:04:59.262Z,20.20
2023-08-13T08:09:54.294Z,20.00
2023-08-13T08:12:21.512Z,19.90
2023-08-13T08:14:48.889Z,19.90
2023-08-13T08:24:40.437Z,19.80
2023-08-13T08:27:09.135Z,19.70
2023-08-13T08:29:36.533Z,19.90
2023-08-13T08:32:06.815Z,20.10
2023-08-13T09:07:00.828Z,19.70
2023-08-13T09:09:29.304Z,19.80
2023-08-13T09:11:57.987Z,19.90
2023-08-13T09:14:26.047Z,20.00
2023-08-13T09:16:55.447Z,20.00
2023-08-13T09:19:25.885Z,19.90
2023-08-13T09:22:02.597Z,20.30
2023-08-13T09:24:34.223Z,20.60
2023-08-13T09:27:02.197Z,20.50
2023-08-13T09:29:33.732Z,20.20
2023-08-13T09:36:59.293Z,20.10
2023-08-13T09:39:29.229Z,20.00
2023-08-13T09:41:56.894Z,20.20
2023-08-13T09:44:29.376Z,19.80
2023-08-13T09:54:36.675Z,20.20
2023-08-13T09:59:37.128Z,19.90
2023-08-13T10:02:08.966Z,19.90
2023-08-13T10:04:43.664Z,20.00
2023-08-13T10:07:11.087Z,19.80
2023-08-13T10:09:38.964Z,19.80
2023-08-13T10:12:07.702Z,20.00
2023-08-13T10:14:35.703Z,19.90
2023-08-13T10:17:05.817Z,19.60
2023-08-13T10:19:40.098Z,19.60
2023-08-13T10:22:15.006Z,19.50
2023-08-13T10:37:24.556Z,19.20
2023-08-13T10:45:05.971Z,19.20
2023-08-13T10:48:12.575Z,19.40
2023-08-13T10:50:41.676Z,19.40
2023-08-13T10:53:11.346Z,19.30
2023-08-13T10:55:49.306Z,19.40
2023-08-13T10:58:29.537Z,19.70
2023-08-13T11:01:01.517Z,19.50
2023-08-13T11:03:34.566Z,19.50
2023-08-13T11:06:04.674Z,19.50
2023-08-13T11:08:46.054Z,19.30
2023-08-13T11:11:16.371Z,19.20
2023-08-13T11:13:43.832Z,19.30
2023-08-13T11:16:11.504Z,19.30
2023-08-13T11:18:39.285Z,19.50
2023-08-13T11:21:07.081Z,19.70
2023-08-13T11:23:34.424Z,19.90
2023-08-13T11:26:04.511Z,19.90
2023-08-13T11:28:31.909Z,20.00
2023-08-13T11:30:59.362Z,19.70
2023-08-13T11:33:27.275Z,19.50
2023-08-13T11:35:57.845Z,19.50
2023-08-13T11:38:25.799Z,19.40
2023-08-13T11:40:53.231Z,19.30
2023-08-13T11:43:21.375Z,19.40
2023-08-13T11:45:52.679Z,19.60
2023-08-13T11:48:22.533Z,19.80
2023-08-13T11:50:59.016Z,20.60
2023-08-13T11:53:45.606Z,20.60
2023-08-13T11:56:14.325Z,19.70
2023-08-13T11:58:42.415Z,19.30
2023-08-13T12:01:14.276Z,19.50
2023-08-13T12:03:43.823Z,19.30
2023-08-13T12:06:12.204Z,19.40
2023-08-13T12:08:44.426Z,19.50
2023-08-13T12:11:11.683Z,19.70
2023-08-13T12:13:42.927Z,20.10
2023-08-13T12:16:10.566Z,20.50
2023-08-13T12:18:38.135Z,20.50
2023-08-13T12:21:05.570Z,20.70
2023-08-13T12:23:33.140Z,21.20
2023-08-13T12:26:03.292Z,20.80
2023-08-13T12:28:30.893Z,20.80
2023-08-13T12:33:25.960Z,20.60
2023-08-13T12:35:53.332Z,20.80
2023-08-13T12:38:20.551Z,24.20
2023-08-13T12:43:15.502Z,21.60
2023-08-13T12:45:43.352Z,22.00
2023-08-13T12:48:10.587Z,22.10
2023-08-13T12:50:37.951Z,21.40
2023-08-13T12:53:05.449Z,21.40
2023-08-13T12:55:32.840Z,22.00
2023-08-13T12:58:00.162Z,22.50
2023-08-13T13:00:27.441Z,23.50
2023-08-13T13:02:54.710Z,23.00
2023-08-13T13:05:22.269Z,22.10
2023-08-13T13:07:49.631Z,21.80
2023-08-13T13:10:17.361Z,21.90
2023-08-13T13:12:45.647Z,21.80
2023-08-13T13:15:13.106Z,21.70
2023-08-13T13:17:40.522Z,21.40
2023-08-13T13:20:17.394Z,21.10
2023-08-13T13:22:44.945Z,21.30
2023-08-13T13:25:12.993Z,21.50
2023-08-13T13:27:42.201Z,21.30
2023-08-13T13:30:11.315Z,21.00
2023-08-13T13:32:39.187Z,20.90
2023-08-13T13:35:08.150Z,21.00
2023-08-13T13:37:35.540Z,21.10
2023-08-13T13:40:03.073Z,21.40
2023-08-13T13:42:31.681Z,21.50
2023-08-13T13:44:59.082Z,22.30
2023-08-13T13:47:26.473Z,21.40
2023-08-13T13:49:53.779Z,21.00
2023-08-13T13:52:21.259Z,20.70
2023-08-13T13:54:48.858Z,20.60
2023-08-13T13:57:16.111Z,20.60
2023-08-13T13:59:43.346Z,20.40
2023-08-13T14:02:10.723Z,20.40
2023-08-13T14:04:38.401Z,20.60
2023-08-13T14:07:05.707Z,20.60
2023-08-13T14:09:32.951Z,20.50
2023-08-13T14:12:00.334Z,20.40
2023-08-13T14:14:27.782Z,20.50
2023-08-13T14:16:55.195Z,20.60
2023-08-13T14:19:22.443Z,20.60
2023-08-13T14:21:49.913Z,20.50
2023-08-13T14:24:17.306Z,20.40
2023-08-13T14:26:44.539Z,20.30
2023-08-13T14:29:11.854Z,20.20
2023-08-13T14:31:39.289Z,20.10
2023-08-13T14:34:06.993Z,19.90
2023-08-13T14:36:35.131Z,19.90
2023-08-13T14:39:04.608Z,20.00
2023-08-13T14:41:32.402Z,19.90
2023-08-13T14:43:59.617Z,19.80
2023-08-13T14:46:27.061Z,19.90
2023-08-13T14:48:54.467Z,19.90
2023-08-13T14:51:21.734Z,19.90
2023-08-13T14:53:48.998Z,19.90
2023-08-13T14:56:16.427Z,19.80
2023-08-13T14:58:43.656Z,19.70
2023-08-13T15:01:11.133Z,19.80
2023-08-13T15:03:39.160Z,19.80
2023-08-13T15:06:06.939Z,19.80
2023-08-13T15:08:34.254Z,19.80
2023-08-13T15:11:01.618Z,19.90
2023-08-13T15:13:29.692Z,19.90
2023-08-13T15:15:57.028Z,19.80
2023-08-13T15:18:24.315Z,19.80
2023-08-13T15:20:51.614Z,19.70
2023-08-13T15:23:19.332Z,19.80
2023-08-13T15:25:55.783Z,19.80
2023-08-13T15:28:24.910Z,19.60
2023-08-13T15:30:56.802Z,19.50
2023-08-13T15:33:25.349Z,19.40
2023-08-13T15:35:58.106Z,19.40
2023-08-13T15:38:29.038Z,19.40
2023-08-13T15:40:56.810Z,19.50
2023-08-13T15:43:24.626Z,19.40
2023-08-13T15:45:51.888Z,19.40
2023-08-13T15:48:19.185Z,19.20
2023-08-13T15:50:47.086Z,19.20
2023-08-13T15:53:14.636Z,19.10
2023-08-13T15:55:42.917Z,19.00
2023-08-13T15:58:11.327Z,19.20
2023-08-13T16:00:39.855Z,19.20
2023-08-13T16:03:07.971Z,19.10
2023-08-13T16:05:35.722Z,19.20
2023-08-13T16:08:06.298Z,19.10
2023-08-13T16:10:36.243Z,19.00
2023-08-13T16:13:05.424Z,19.00
2023-08-13T16:15:33.491Z,18.90
2023-08-13T16:18:00.802Z,19.00
2023-08-13T16:20:28.610Z,18.90
2023-08-13T16:22:55.908Z,19.10
2023-08-13T16:25:23.246Z,19.10
2023-08-13T16:27:50.483Z,19.20
2023-08-13T16:30:17.798Z,19.10
2023-08-13T16:32:45.207Z,19.10
2023-08-13T16:35:13.447Z,19.10
2023-08-13T16:37:40.991Z,19.10
2023-08-13T16:40:09.725Z,19.30
2023-08-13T16:42:47.610Z,19.30
2023-08-13T16:45:25.380Z,19.30
2023-08-13T16:47:55.859Z,19.20
2023-08-13T16:50:24.619Z,19.20
2023-08-13T16:52:52.396Z,19.20
2023-08-13T16:55:20.026Z,19.30
2023-08-13T16:57:47.943Z,19.20
2023-08-13T17:00:15.667Z,19.20
2023-08-13T17:02:45.149Z,19.20
2023-08-13T17:05:15.782Z,19.30
2023-08-13T17:07:43.238Z,19.20
2023-08-13T17:10:14.386Z,19.20
2023-08-13T17:12:42.535Z,19.20
2023-08-13T17:15:22.989Z,19.20
2023-08-13T17:17:53.490Z,19.20
2023-08-13T17:20:22.007Z,19.20
2023-08-13T17:22:50.476Z,19.20
2023-08-13T17:25:17.845Z,19.20
2023-08-13T17:27:45.894Z,19.20
2023-08-13T17:30:13.657Z,19.20
2023-08-13T17:32:40.875Z,19.20
2023-08-13T17:35:08.277Z,19.10
2023-08-13T17:37:37.026Z,19.10
2023-08-13T17:40:06.205Z,19.10
2023-08-13T17:42:33.644Z,19.10
2023-08-13T17:45:01.197Z,19.20
2023-08-13T17:47:30.153Z,19.20
2023-08-13T17:49:58.135Z,19.10
2023-08-13T17:52:27.180Z,19.10
2023-08-13T17:54:54.528Z,19.10
2023-08-13T17:57:21.913Z,19.10
2023-08-13T17:59:49.246Z,19.10
2023-08-13T18:02:16.546Z,19.10
2023-08-13T18:04:44.188Z,19.10
2023-08-13T18:07:11.444Z,19.10
2023-08-13T18:09:39.371Z,19.20
2023-08-13T18:12:08.207Z,19.20
2023-08-13T18:14:35.660Z,19.10
2023-08-13T18:17:02.919Z,19.20
2023-08-13T18:19:30.372Z,19.20
2023-08-13T18:21:57.604Z,19.20
2023-08-13T18:24:24.912Z,19.20
2023-08-13T18:26:52.289Z,19.20
2023-08-13T18:29:19.550Z,19.20
2023-08-13T18:31:46.801Z,19.20
2023-08-13T18:34:14.053Z,19.20
2023-08-13T18:36:41.522Z,19.30
2023-08-13T18:39:09.688Z,19.20
2023-08-13T18:41:36.899Z,19.20
2023-08-13T18:44:04.438Z,19.20
2023-08-13T18:46:32.012Z,19.30
2023-08-13T18:49:00.064Z,19.30
2023-08-13T18:51:27.595Z,19.30
2023-08-13T18:53:54.972Z,19.30
2023-08-13T18:56:22.388Z,19.30
2023-08-13T18:58:49.745Z,19.40
2023-08-13T19:01:17.092Z,19.30
2023-08-13T19:03:44.450Z,19.30
2023-08-13T19:06:12.424Z,19.30
2023-08-13T19:08:39.680Z,19.30
2023-08-13T19:11:06.895Z,19.30
2023-08-13T19:13:34.273Z,19.30
2023-08-13T19:16:01.932Z,19.20
2023-08-13T19:18:29.280Z,19.30
2023-08-13T19:20:56.720Z,19.30
2023-08-13T19:23:24.027Z,19.30
2023-08-13T19:25:51.442Z,19.30
2023-08-13T19:28:19.691Z,19.20
2023-08-13T19:30:47.600Z,19.20
2023-08-13T19:33:14.867Z,19.30
2023-08-13T19:35:42.360Z,19.20
2023-08-13T19:38:09.561Z,19.30
2023-08-13T19:40:40.331Z,19.20
2023-08-13T19:43:07.710Z,19.20
2023-08-13T19:45:35.035Z,19.30
2023-08-13T19:48:02.432Z,19.30
2023-08-13T19:50:29.967Z,19.30
2023-08-13T19:52:57.240Z,19.30
2023-08-13T19:55:24.425Z,19.30
2023-08-13T19:57:51.767Z,19.30
2023-08-13T20:00:19.070Z,19.20
2023-08-13T20:02:46.426Z,19.20
2023-08-13T20:05:13.968Z,19.20
2023-08-13T20:07:41.226Z,19.20
2023-08-13T20:10:08.819Z,19.20
2023-08-13T20:12:36.280Z,19.20
2023-08-13T20:15:03.988Z,19.10
2023-08-13T20:17:32.611Z,19.20
2023-08-13T20:20:00.147Z,19.20
2023-08-13T20:22:27.503Z,19.20
2023-08-13T20:24:54.745Z,19.20
2023-08-13T20:27:21.935Z,19.20
2023-08-13T20:29:49.194Z,19.20
2023-08-13T20:32:17.089Z,19.20
2023-08-13T20:34:44.766Z,19.10
2023-08-13T20:37:12.649Z,19.20
2023-08-13T20:39:39.960Z,19.20
2023-08-13T20:42:07.481Z,19.10
2023-08-13T20:44:34.714Z,19.10
2023-08-13T20:47:02.329Z,19.10
2023-08-13T20:49:29.549Z,19.10
2023-08-13T20:51:56.808Z,19.10
2023-08-13T20:54:24.137Z,19.10
2023-08-13T20:56:51.504Z,19.10
2023-08-13T20:59:18.784Z,19.00
2023-08-13T21:01:47.390Z,19.10
2023-08-13T21:04:17.528Z,19.10
2023-08-13T21:06:45.613Z,19.10
2023-08-13T21:09:12.945Z,19.10
2023-08-13T21:11:40.264Z,19.10
2023-08-13T21:14:07.685Z,19.00
2023-08-13T21:16:35.071Z,19.10
2023-08-13T21:19:02.368Z,19.00
2023-08-13T21:21:29.710Z,19.10
2023-08-13T21:23:57.054Z,19.10
2023-08-13T21:26:25.829Z,19.00
2023-08-13T21:28:53.160Z,19.10
2023-08-13T21:31:20.563Z,19.10
2023-08-13T21:33:48.111Z,19.10
2023-08-13T21:36:15.462Z,19.10
2023-08-13T21:38:42.874Z,19.20
2023-08-13T21:41:10.073Z,19.10
2023-08-13T21:43:37.382Z,19.20
2023-08-13T21:46:04.670Z,19.10
2023-08-13T21:48:32.052Z,19.10
2023-08-13T21:51:00.170Z,19.10
2023-08-13T21:53:27.481Z,19.10
2023-08-13T21:55:55.719Z,19.10
2023-08-13T21:58:23.129Z,19.10
2023-08-13T22:00:50.449Z,19.10
2023-08-13T22:03:19.353Z,19.10
2023-08-13T22:05:46.792Z,19.20
2023-08-13T22:08:14.507Z,19.10
2023-08-13T22:10:43.174Z,19.10
2023-08-13T22:13:10.772Z,19.10
2023-08-13T22:15:38.146Z,19.10
2023-08-13T22:18:05.734Z,19.00
2023-08-13T22:20:33.560Z,19.00
2023-08-13T22:23:04.480Z,19.00
2023-08-13T22:25:31.840Z,19.00
2023-08-13T22:27:59.282Z,19.00
2023-08-13T22:30:26.531Z,19.20
2023-08-13T22:32:54.252Z,19.10
2023-08-13T22:35:21.501Z,19.10
2023-08-13T22:37:48.928Z,19.10
2023-08-13T22:40:16.694Z,19.00
2023-08-13T22:42:44.036Z,18.90
2023-08-13T22:45:11.589Z,18.80
2023-08-13T22:47:39.222Z,18.90
2023-08-13T22:50:07.298Z,18.90
2023-08-13T22:52:34.931Z,18.90
2023-08-13T22:55:02.296Z,19.30
2023-08-13T22:57:30.875Z,19.00
2023-08-13T22:59:58.276Z,18.90
2023-08-13T23:02:25.449Z,18.90
2023-08-13T23:04:56.196Z,18.80
2023-08-13T23:07:24.030Z,18.80
2023-08-13T23:09:51.563Z,18.90
2023-08-13T23:12:19.075Z,18.80
2023-08-13T23:14:47.000Z,18.80
2023-08-13T23:17:14.270Z,18.80
2023-08-13T23:19:41.505Z,18.80
2023-08-13T23:24:38.087Z,18.90
2023-08-13T23:27:05.755Z,18.90
2023-08-13T23:29:33.116Z,18.90
2023-08-13T23:32:00.331Z,18.80
2023-08-13T23:34:28.273Z,18.80
2023-08-13T23:36:55.615Z,18.80
2023-08-13T23:39:22.861Z,18.80
2023-08-13T23:41:50.496Z,18.80
2023-08-13T23:44:18.426Z,18.80
2023-08-13T23:46:45.914Z,18.80
2023-08-13T23:49:13.272Z,18.80
2023-08-13T23:51:40.674Z,18.80
2023-08-13T23:54:07.884Z,18.90
2023-08-13T23:56:35.075Z,18.80
2023-08-13T23:59:02.719Z,18.90
